createdAt,value
2023-04-09T00:00:10.430Z,17.75
2023-04-09T00:02:42.115Z,17.76
2023-04-09T00:05:09.391Z,17.71
2023-04-09T00:07:36.497Z,17.69
2023-04-09T00:10:03.510Z,17.72
2023-04-09T00:12:30.483Z,17.74
2023-04-09T00:14:57.557Z,17.76
2023-04-09T00:17:24.377Z,17.88
2023-04-09T00:19:51.283Z,17.97
2023-04-09T00:22:18.004Z,17.81
2023-04-09T00:24:45.523Z,17.67
2023-04-09T00:27:12.145Z,17.52
2023-04-09T00:29:41.027Z,17.35
2023-04-09T00:32:07.939Z,17.18
2023-04-09T00:34:34.865Z,17.04
2023-04-09T00:37:01.597Z,16.94
2023-04-09T00:39:28.663Z,16.89
2023-04-09T00:41:57.427Z,16.86
2023-04-09T00:44:24.827Z,16.82
2023-04-09T00:46:52.357Z,16.77
2023-04-09T00:49:19.337Z,16.73
2023-04-09T00:51:46.144Z,16.73
2023-04-09T00:54:12.842Z,16.73
2023-04-09T00:56:39.920Z,16.70
2023-04-09T00:59:07.260Z,16.69
2023-04-09T01:01:35.521Z,16.72
2023-04-09T01:04:02.811Z,16.74
2023-04-09T01:06:45.126Z,16.72
2023-04-09T01:09:27.961Z,16.70
2023-04-09T01:12:19.311Z,16.63
2023-04-09T01:14:53.474Z,16.59
2023-04-09T01:17:33.372Z,16.61
2023-04-09T01:20:01.753Z,16.60
2023-04-09T01:22:38.579Z,16.55
2023-04-09T01:25:30.025Z,16.54
2023-04-09T01:28:18.025Z,16.55
2023-04-09T01:30:50.775Z,16.60
2023-04-09T01:33:18.689Z,16.69
2023-04-09T01:35:46.931Z,16.74
2023-04-09T01:38:14.011Z,16.75
2023-04-09T01:40:40.835Z,16.79
2023-04-09T01:43:07.989Z,16.86
2023-04-09T01:45:36.073Z,16.92
2023-04-09T01:48:02.711Z,16.96
2023-04-09T01:50:33.163Z,16.99
2023-04-09T01:53:00.816Z,17.02
2023-04-09T01:55:27.621Z,17.05
2023-04-09T01:57:54.214Z,17.04
2023-04-09T02:00:23.817Z,16.97
2023-04-09T02:02:57.253Z,16.90
2023-04-09T02:05:26.383Z,16.82
2023-04-09T02:07:55.216Z,16.83
2023-04-09T02:10:24.119Z,16.83
2023-04-09T02:12:50.952Z,16.85
2023-04-09T02:15:19.979Z,16.87
2023-04-09T02:17:47.699Z,16.87
2023-04-09T02:20:18.316Z,16.86
2023-04-09T02:22:45.581Z,16.87
2023-04-09T02:25:12.802Z,16.87
2023-04-09T02:27:39.562Z,16.87
2023-04-09T02:30:07.376Z,16.91
2023-04-09T02:32:35.940Z,16.96
2023-04-09T02:35:07.098Z,17.00
2023-04-09T02:37:33.920Z,17.04
2023-04-09T02:40:00.796Z,17.09
2023-04-09T02:42:27.559Z,17.17
2023-04-09T02:44:54.566Z,17.25
2023-04-09T02:47:21.849Z,17.31
2023-04-09T02:49:49.291Z,17.32
2023-04-09T02:52:16.249Z,17.31
2023-04-09T02:54:43.044Z,17.32
2023-04-09T02:57:10.673Z,17.36
2023-04-09T02:59:38.354Z,17.42
2023-04-09T03:02:05.044Z,17.46
2023-04-09T03:04:31.910Z,17.46
2023-04-09T03:06:58.961Z,17.41
2023-04-09T03:09:26.143Z,17.31
2023-04-09T03:11:52.941Z,17.19
2023-04-09T03:14:19.563Z,17.08
2023-04-09T03:16:50.132Z,16.98
2023-04-09T03:19:16.689Z,16.95
2023-04-09T03:21:43.503Z,16.96
2023-04-09T03:24:10.264Z,16.99
2023-04-09T03:26:38.180Z,17.00
2023-04-09T03:29:10.139Z,16.96
2023-04-09T03:31:37.656Z,16.92
2023-04-09T03:34:04.722Z,16.87
2023-04-09T03:36:32.335Z,16.81
2023-04-09T03:39:02.076Z,16.80
2023-04-09T03:41:37.039Z,16.84
2023-04-09T03:44:06.341Z,16.90
2023-04-09T03:46:39.153Z,16.91
2023-04-09T03:49:07.012Z,16.89
2023-04-09T03:51:37.421Z,16.89
2023-04-09T03:54:04.073Z,16.90
2023-04-09T03:56:32.194Z,16.96
2023-04-09T03:58:59.155Z,17.11
2023-04-09T04:01:34.222Z,17.40
2023-04-09T04:04:01.254Z,17.66
2023-04-09T04:06:35.169Z,17.83
2023-04-09T04:09:21.069Z,17.81
2023-04-09T04:11:55.644Z,17.70
2023-04-09T04:14:24.291Z,17.65
2023-04-09T04:16:55.680Z,17.60
2023-04-09T04:19:25.490Z,17.57
2023-04-09T04:21:52.137Z,17.58
2023-04-09T04:24:21.452Z,17.57
2023-04-09T04:26:50.762Z,17.50
2023-04-09T04:29:18.840Z,17.40
2023-04-09T04:31:59.979Z,17.31
2023-04-09T04:34:31.232Z,17.30
2023-04-09T04:37:02.270Z,17.34
2023-04-09T04:39:37.538Z,17.45
2023-04-09T04:42:09.297Z,17.56
2023-04-09T04:44:36.247Z,17.65
2023-04-09T04:47:13.440Z,17.75
2023-04-09T04:49:41.662Z,17.86
2023-04-09T04:52:11.333Z,17.95
2023-04-09T04:54:39.875Z,18.02
2023-04-09T04:57:07.050Z,18.14
2023-04-09T04:59:42.680Z,18.36
2023-04-09T05:02:11.274Z,18.56
2023-04-09T05:04:46.620Z,18.88
2023-04-09T05:07:17.259Z,19.16
2023-04-09T05:09:50.606Z,19.33
2023-04-09T05:12:17.545Z,19.40
2023-04-09T05:14:48.921Z,19.46
2023-04-09T05:17:16.022Z,19.55
2023-04-09T05:19:44.151Z,19.68
2023-04-09T05:22:11.267Z,19.89
2023-04-09T05:24:43.728Z,20.09
2023-04-09T05:27:10.628Z,20.25
2023-04-09T05:29:37.283Z,20.39
2023-04-09T05:32:08.862Z,20.59
2023-04-09T05:34:38.518Z,20.97
2023-04-09T05:37:05.618Z,21.50
2023-04-09T05:39:33.581Z,22.08
2023-04-09T05:42:01.826Z,22.78
2023-04-09T05:44:38.895Z,23.54
2023-04-09T05:48:47.033Z,23.46
2023-04-09T05:51:15.974Z,25.12
2023-04-09T05:53:44.835Z,25.84
2023-04-09T05:56:15.671Z,26.33
2023-04-09T05:58:51.602Z,26.57
2023-04-09T06:01:20.144Z,26.51
2023-04-09T06:03:48.596Z,26.27
2023-04-09T06:06:16.950Z,25.95
2023-04-09T06:08:48.660Z,25.57
2023-04-09T06:11:16.794Z,25.21
2023-04-09T06:13:45.954Z,24.84
2023-04-09T06:16:14.582Z,24.49
2023-04-09T06:18:43.176Z,24.18
2023-04-09T06:21:13.559Z,23.92
2023-04-09T06:23:45.854Z,23.69
2023-04-09T06:26:14.358Z,23.50
2023-04-09T06:28:43.325Z,23.28
2023-04-09T06:31:11.508Z,23.07
2023-04-09T06:33:40.104Z,22.85
2023-04-09T06:36:08.616Z,22.64
2023-04-09T06:38:37.505Z,22.49
2023-04-09T06:41:08.564Z,22.42
2023-04-09T06:43:38.801Z,22.35
2023-04-09T06:46:06.987Z,22.31
2023-04-09T06:48:36.123Z,22.26
2023-04-09T06:51:04.662Z,22.27
2023-04-09T06:53:33.424Z,22.27
2023-04-09T06:56:03.636Z,22.29
2023-04-09T06:58:31.737Z,22.36
2023-04-09T07:01:01.136Z,22.49
2023-04-09T07:03:30.784Z,22.64
2023-04-09T07:05:59.062Z,22.79
2023-04-09T07:08:28.651Z,22.98
2023-04-09T07:10:59.463Z,23.09
2023-04-09T07:15:57.616Z,23.28
2023-04-09T07:18:31.684Z,23.52
2023-04-09T07:21:01.055Z,23.75
2023-04-09T07:23:29.797Z,23.94
2023-04-09T07:25:57.882Z,24.13
2023-04-09T07:28:27.157Z,24.31
2023-04-09T07:30:55.401Z,24.47
2023-04-09T07:33:43.304Z,24.66
2023-04-09T07:36:12.497Z,24.78
2023-04-09T07:38:41.652Z,24.96
2023-04-09T07:41:12.843Z,25.03
2023-04-09T07:43:41.667Z,24.83
2023-04-09T07:46:09.652Z,24.57
2023-04-09T07:48:38.331Z,24.36
2023-04-09T07:51:06.859Z,24.05
2023-04-09T07:53:37.678Z,23.54
2023-04-09T07:56:06.841Z,23.21
2023-04-09T07:58:35.394Z,22.97
2023-04-09T08:01:06.242Z,22.72
2023-04-09T08:03:36.864Z,22.63
2023-04-09T08:06:05.711Z,22.67
2023-04-09T08:08:35.481Z,22.57
2023-04-09T08:11:04.144Z,22.47
2023-04-09T08:13:32.696Z,22.33
2023-04-09T08:16:02.356Z,22.23
2023-04-09T08:18:30.646Z,22.16
2023-04-09T08:20:58.799Z,22.07
2023-04-09T08:23:28.269Z,22.10
2023-04-09T08:25:56.335Z,22.21
2023-04-09T08:28:24.584Z,22.35
2023-04-09T08:30:53.773Z,22.60
2023-04-09T08:33:22.695Z,22.91
2023-04-09T08:35:50.844Z,23.16
2023-04-09T08:38:20.627Z,23.34
2023-04-09T08:40:48.889Z,23.39
2023-04-09T08:43:17.556Z,23.62
2023-04-09T08:45:46.873Z,23.86
2023-04-09T08:48:15.498Z,23.98
2023-04-09T08:50:46.440Z,23.90
2023-04-09T08:53:14.554Z,23.82
2023-04-09T08:55:45.579Z,23.77
2023-04-09T08:58:14.042Z,23.78
2023-04-09T09:00:42.872Z,23.86
2023-04-09T09:03:13.398Z,23.91
2023-04-09T09:05:43.360Z,23.91
2023-04-09T09:08:24.195Z,23.70
2023-04-09T09:10:52.599Z,23.45
2023-04-09T09:13:25.960Z,23.39
2023-04-09T09:15:56.464Z,23.46
2023-04-09T09:18:38.618Z,23.60
2023-04-09T09:21:13.627Z,23.78
2023-04-09T09:23:42.792Z,23.90
2023-04-09T09:26:18.532Z,24.00
2023-04-09T09:28:47.184Z,24.06
2023-04-09T09:31:16.510Z,24.11
2023-04-09T09:33:47.366Z,24.02
2023-04-09T09:36:16.654Z,23.82
2023-04-09T09:38:57.894Z,23.84
2023-04-09T09:41:29.718Z,23.91
2023-04-09T09:43:59.169Z,23.91
2023-04-09T09:46:27.689Z,23.85
2023-04-09T09:48:56.504Z,23.86
2023-04-09T09:51:27.353Z,23.71
2023-04-09T09:53:57.265Z,23.54
2023-04-09T09:56:33.250Z,23.49
2023-04-09T09:59:21.344Z,23.53
2023-04-09T10:01:52.460Z,23.62
2023-04-09T10:04:20.730Z,23.76
2023-04-09T10:06:49.254Z,23.76
2023-04-09T10:09:19.060Z,23.56
2023-04-09T10:11:48.830Z,23.36
2023-04-09T10:14:18.208Z,23.05
2023-04-09T10:16:46.676Z,22.91
2023-04-09T10:19:15.758Z,22.99
2023-04-09T10:22:04.465Z,23.06
2023-04-09T10:24:34.002Z,23.17
2023-04-09T10:27:16.974Z,23.16
2023-04-09T10:29:47.730Z,23.04
2023-04-09T10:32:28.518Z,22.92
2023-04-09T10:35:17.821Z,22.88
2023-04-09T10:37:48.459Z,23.01
2023-04-09T10:40:22.701Z,23.06
2023-04-09T10:42:50.823Z,23.14
2023-04-09T10:45:23.209Z,23.19
2023-04-09T10:47:54.590Z,23.17
2023-04-09T10:50:31.430Z,23.24
2023-04-09T10:53:04.885Z,23.19
2023-04-09T10:55:41.947Z,23.05
2023-04-09T10:58:13.226Z,22.93
2023-04-09T11:00:49.053Z,22.73
2023-04-09T11:03:20.881Z,22.79
2023-04-09T11:06:10.268Z,23.23
2023-04-09T11:08:41.842Z,23.37
2023-04-09T11:11:17.250Z,23.33
2023-04-09T11:13:45.706Z,23.36
2023-04-09T11:16:22.910Z,23.38
2023-04-09T11:19:02.241Z,23.37
2023-04-09T11:21:48.720Z,23.21
2023-04-09T11:24:19.030Z,23.20
2023-04-09T11:26:51.882Z,23.29
2023-04-09T11:29:36.880Z,23.34
2023-04-09T11:32:05.552Z,23.37
2023-04-09T11:34:53.406Z,23.28
2023-04-09T11:37:28.934Z,23.14
2023-04-09T11:39:58.465Z,23.17
2023-04-09T11:42:31.790Z,23.11
2023-04-09T11:45:07.242Z,23.25
2023-04-09T11:47:51.346Z,23.36
2023-04-09T11:50:23.441Z,23.31
2023-04-09T11:52:51.438Z,23.50
2023-04-09T11:55:31.134Z,23.69
2023-04-09T11:58:11.934Z,23.82
2023-04-09T12:00:43.948Z,23.72
2023-04-09T12:03:12.589Z,23.62
2023-04-09T12:05:50.893Z,23.44
2023-04-09T12:08:25.137Z,23.40
2023-04-09T12:11:08.750Z,23.49
2023-04-09T12:13:44.680Z,23.43
2023-04-09T12:16:13.317Z,23.40
2023-04-09T12:19:11.494Z,23.42
2023-04-09T12:21:50.428Z,23.48
2023-04-09T12:24:19.998Z,23.51
2023-04-09T12:26:53.899Z,23.62
2023-04-09T12:29:22.230Z,23.80
2023-04-09T12:31:51.147Z,23.99
2023-04-09T12:34:27.344Z,24.05
2023-04-09T12:36:56.110Z,23.93
2023-04-09T12:39:24.136Z,23.82
2023-04-09T12:41:55.869Z,23.75
2023-04-09T12:44:24.016Z,23.68
2023-04-09T12:46:55.439Z,23.76
2023-04-09T12:49:28.080Z,23.87
2023-04-09T12:51:57.766Z,24.00
2023-04-09T12:54:26.432Z,24.12
2023-04-09T12:56:54.942Z,24.05
2023-04-09T12:59:23.420Z,23.94
2023-04-09T13:01:55.819Z,23.86
2023-04-09T13:04:26.594Z,23.79
2023-04-09T13:06:59.107Z,23.66
2023-04-09T13:09:27.865Z,23.61
2023-04-09T13:12:12.950Z,23.50
2023-04-09T13:14:43.770Z,23.31
2023-04-09T13:17:13.283Z,23.15
2023-04-09T13:19:43.136Z,23.02
2023-04-09T13:22:12.610Z,22.90
2023-04-09T13:24:43.378Z,22.68
2023-04-09T13:27:13.309Z,22.77
2023-04-09T13:29:45.727Z,22.79
2023-04-09T13:32:14.486Z,22.76
2023-04-09T13:34:51.511Z,22.71
2023-04-09T13:37:20.451Z,22.59
2023-04-09T13:39:50.613Z,22.67
2023-04-09T13:42:19.277Z,22.64
2023-04-09T13:44:47.517Z,22.55
2023-04-09T13:47:16.895Z,22.57
2023-04-09T13:49:45.200Z,22.66
2023-04-09T13:52:13.313Z,22.60
2023-04-09T13:54:41.992Z,22.45
2023-04-09T13:57:10.755Z,22.25
2023-04-09T13:59:38.869Z,22.04
2023-04-09T14:02:09.405Z,21.90
2023-04-09T14:04:38.925Z,21.77
2023-04-09T14:07:08.568Z,21.63
2023-04-09T14:09:39.965Z,21.47
2023-04-09T14:12:08.028Z,21.29
2023-04-09T14:14:38.116Z,21.08
2023-04-09T14:17:07.741Z,20.91
2023-04-09T14:19:36.662Z,20.81
2023-04-09T14:22:15.885Z,20.68
2023-04-09T14:24:43.945Z,20.51
2023-04-09T14:27:12.374Z,20.35
2023-04-09T14:29:46.580Z,20.10
2023-04-09T14:32:23.140Z,19.76
2023-04-09T14:35:09.731Z,19.54
2023-04-09T14:37:42.481Z,19.33
2023-04-09T14:40:13.990Z,19.21
2023-04-09T14:42:45.620Z,19.20
2023-04-09T14:45:24.960Z,19.19
2023-04-09T14:47:55.015Z,19.16
2023-04-09T14:50:26.512Z,19.13
2023-04-09T14:52:56.862Z,19.01
2023-04-09T14:55:44.754Z,18.92
2023-04-09T14:58:19.980Z,18.84
2023-04-09T15:00:59.067Z,18.77
2023-04-09T15:03:31.124Z,18.72
2023-04-09T15:06:12.684Z,18.73
2023-04-09T15:08:41.126Z,18.75
2023-04-09T15:11:23.178Z,18.81
2023-04-09T15:13:57.965Z,18.88
2023-04-09T15:16:28.479Z,18.94
2023-04-09T15:19:05.115Z,19.01
2023-04-09T15:21:38.907Z,19.08
2023-04-09T15:24:07.140Z,19.15
2023-04-09T15:26:39.224Z,19.20
2023-04-09T15:29:22.375Z,19.23
2023-04-09T15:31:56.323Z,19.21
2023-04-09T15:34:32.752Z,19.18
2023-04-09T15:37:03.549Z,19.09
2023-04-09T15:39:32.698Z,19.00
2023-04-09T15:42:02.392Z,18.93
2023-04-09T15:44:32.122Z,18.87
2023-04-09T15:47:12.446Z,18.84
2023-04-09T15:49:43.133Z,18.82
2023-04-09T15:52:16.049Z,18.82
2023-04-09T15:54:46.997Z,18.81
2023-04-09T15:57:22.209Z,18.79
2023-04-09T15:59:50.261Z,18.78
2023-04-09T16:02:25.961Z,18.76
2023-04-09T16:04:56.543Z,18.73
2023-04-09T16:07:25.706Z,18.69
2023-04-09T16:09:54.647Z,18.67
2023-04-09T16:12:26.050Z,18.68
2023-04-09T16:15:07.616Z,18.68
2023-04-09T16:17:40.766Z,18.72
2023-04-09T16:20:11.726Z,18.79
2023-04-09T16:22:45.364Z,18.82
2023-04-09T16:25:14.515Z,18.84
2023-04-09T16:27:49.188Z,18.85
2023-04-09T16:30:23.773Z,18.87
2023-04-09T16:32:56.883Z,18.91
2023-04-09T16:35:27.391Z,18.98
2023-04-09T16:38:09.671Z,19.07
2023-04-09T16:40:46.532Z,19.18
2023-04-09T16:43:19.476Z,19.28
2023-04-09T16:45:50.053Z,19.35
2023-04-09T16:48:37.270Z,19.38
2023-04-09T16:51:12.987Z,19.43
2023-04-09T16:53:45.856Z,19.45
2023-04-09T16:56:18.970Z,19.38
2023-04-09T16:58:47.367Z,19.31
2023-04-09T17:01:22.935Z,19.27
2023-04-09T17:03:55.097Z,19.19
2023-04-09T17:06:24.030Z,19.20
2023-04-09T17:08:53.757Z,19.15
2023-04-09T17:11:24.178Z,19.07
2023-04-09T17:13:55.905Z,19.01
2023-04-09T17:16:24.904Z,18.99
2023-04-09T17:18:53.469Z,18.97
2023-04-09T17:21:27.479Z,18.98
2023-04-09T17:23:57.340Z,19.06
2023-04-09T17:26:25.513Z,19.18
2023-04-09T17:29:00.349Z,19.28
2023-04-09T17:31:29.064Z,19.29
2023-04-09T17:34:17.181Z,19.23
2023-04-09T17:37:00.981Z,19.20
2023-04-09T17:39:29.853Z,19.16
2023-04-09T17:41:58.483Z,19.11
2023-04-09T17:44:28.690Z,19.08
2023-04-09T17:47:05.263Z,19.07
2023-04-09T17:49:34.441Z,19.04
2023-04-09T17:52:06.298Z,19.03
2023-04-09T17:54:35.010Z,19.08
2023-04-09T17:57:07.384Z,19.16
2023-04-09T17:59:42.467Z,19.21
2023-04-09T18:02:16.578Z,19.22
2023-04-09T18:07:03.881Z,17.97
2023-04-09T18:09:38.649Z,18.88
2023-04-09T18:12:06.218Z,18.91
2023-04-09T18:14:47.847Z,18.93
2023-04-09T18:17:16.465Z,18.94
2023-04-09T18:19:43.386Z,18.93
2023-04-09T18:22:14.285Z,18.93
2023-04-09T18:24:41.520Z,18.96
2023-04-09T18:27:08.489Z,18.92
2023-04-09T18:29:40.942Z,18.85
2023-04-09T18:32:08.601Z,18.83
2023-04-09T18:34:37.600Z,18.84
2023-04-09T18:37:04.392Z,18.89
2023-04-09T18:40:05.414Z,18.93
2023-04-09T18:42:33.188Z,18.94
2023-04-09T18:45:00.231Z,18.91
2023-04-09T18:47:29.594Z,18.86
2023-04-09T18:49:57.378Z,18.80
2023-04-09T18:52:27.009Z,18.73
2023-04-09T18:55:11.203Z,18.65
2023-04-09T18:57:38.423Z,18.55
2023-04-09T19:00:06.595Z,18.52
2023-04-09T19:02:34.005Z,18.55
2023-04-09T19:05:02.719Z,18.54
2023-04-09T19:07:31.509Z,18.58
2023-04-09T19:09:58.410Z,18.58
2023-04-09T19:12:28.109Z,18.60
2023-04-09T19:14:56.339Z,18.60
2023-04-09T19:17:23.793Z,18.62
2023-04-09T19:19:52.138Z,18.66
2023-04-09T19:22:19.127Z,18.71
2023-04-09T19:24:46.080Z,18.73
2023-04-09T19:27:13.477Z,18.77
2023-04-09T19:29:40.554Z,18.81
2023-04-09T19:32:12.793Z,18.78
2023-04-09T19:34:41.180Z,18.68
2023-04-09T19:37:07.918Z,18.61
2023-04-09T19:39:35.168Z,18.59
2023-04-09T19:42:02.376Z,18.61
2023-04-09T19:44:31.588Z,18.68
2023-04-09T19:46:58.479Z,18.81
2023-04-09T19:49:27.976Z,18.93
2023-04-09T19:52:00.383Z,19.03
2023-04-09T19:54:30.194Z,19.12
2023-04-09T19:57:09.049Z,19.19
2023-04-09T19:59:39.167Z,19.30
2023-04-09T20:02:08.538Z,19.44
2023-04-09T20:04:35.920Z,19.54
2023-04-09T20:07:03.737Z,19.52
2023-04-09T20:09:41.830Z,19.53
2023-04-09T20:12:10.163Z,19.50
2023-04-09T20:14:40.090Z,19.34
2023-04-09T20:17:10.139Z,19.15
2023-04-09T20:19:39.318Z,19.09
2023-04-09T20:22:06.168Z,19.12
2023-04-09T20:24:34.693Z,19.07
2023-04-09T20:27:01.613Z,18.96
2023-04-09T20:29:29.164Z,18.91
2023-04-09T20:32:02.681Z,18.89
2023-04-09T20:34:30.135Z,18.86
2023-04-09T20:36:57.155Z,18.81
2023-04-09T20:39:26.087Z,18.76
2023-04-09T20:41:53.682Z,18.74
2023-04-09T20:44:20.935Z,18.70
2023-04-09T20:46:47.879Z,18.70
2023-04-09T20:49:15.263Z,18.69
2023-04-09T20:51:45.745Z,18.69
2023-04-09T20:54:12.740Z,18.73
2023-04-09T20:56:39.371Z,18.75
2023-04-09T20:59:06.636Z,18.74
2023-04-09T21:01:34.240Z,18.77
2023-04-09T21:04:01.189Z,18.81
2023-04-09T21:06:30.056Z,18.81
2023-04-09T21:08:58.699Z,18.76
2023-04-09T21:11:26.687Z,18.75
2023-04-09T21:13:55.618Z,18.78
2023-04-09T21:16:25.551Z,18.85
2023-04-09T21:18:52.833Z,18.92
2023-04-09T21:21:30.097Z,19.01
2023-04-09T21:23:57.023Z,19.07
2023-04-09T21:26:24.560Z,19.09
2023-04-09T21:28:56.725Z,19.13
2023-04-09T21:31:23.642Z,19.13
2023-04-09T21:33:50.736Z,19.05
2023-04-09T21:36:19.472Z,18.99
2023-04-09T21:38:46.290Z,18.96
2023-04-09T21:41:13.923Z,18.95
2023-04-09T21:43:41.908Z,18.89
2023-04-09T21:46:08.687Z,18.84
2023-04-09T21:48:35.877Z,18.80
2023-04-09T21:51:03.054Z,18.81
2023-04-09T21:53:35.471Z,18.85
2023-04-09T21:56:04.806Z,18.93
2023-04-09T21:58:31.980Z,19.07
2023-04-09T22:00:58.863Z,19.17
2023-04-09T22:03:27.011Z,19.24
2023-04-09T22:05:54.243Z,19.29
2023-04-09T22:08:21.090Z,19.31
2023-04-09T22:10:47.781Z,19.29
2023-04-09T22:13:21.540Z,19.21
2023-04-09T22:15:48.534Z,19.15
2023-04-09T22:18:15.752Z,19.11
2023-04-09T22:20:45.659Z,19.09
2023-04-09T22:23:13.008Z,19.10
2023-04-09T22:25:40.054Z,19.11
2023-04-09T22:28:10.286Z,19.18
2023-04-09T22:30:40.423Z,19.22
2023-04-09T22:33:08.249Z,19.20
2023-04-09T22:35:35.782Z,19.21
2023-04-09T22:38:03.499Z,19.28
2023-04-09T22:40:30.279Z,19.33
2023-04-09T22:42:57.318Z,19.39
2023-04-09T22:45:27.301Z,19.39
2023-04-09T22:47:55.165Z,19.43
2023-04-09T22:50:22.044Z,19.44
2023-04-09T22:52:51.004Z,19.42
2023-04-09T22:55:17.735Z,19.42
2023-04-09T22:57:46.127Z,19.42
2023-04-09T23:00:13.854Z,19.33
2023-04-09T23:02:41.292Z,19.22
2023-04-09T23:05:09.183Z,19.13
2023-04-09T23:07:36.271Z,19.03
2023-04-09T23:10:03.112Z,18.95
2023-04-09T23:12:32.772Z,18.91
2023-04-09T23:14:59.582Z,18.89
2023-04-09T23:17:27.124Z,18.85
2023-04-09T23:19:53.735Z,18.84
2023-04-09T23:22:20.710Z,18.83
2023-04-09T23:24:47.421Z,18.85
2023-04-09T23:27:14.112Z,18.83
2023-04-09T23:29:40.827Z,18.76
2023-04-09T23:32:07.481Z,18.69
2023-04-09T23:34:34.216Z,18.61
2023-04-09T23:37:00.990Z,18.57
2023-04-09T23:39:27.699Z,18.53
2023-04-09T23:41:55.318Z,18.46
2023-04-09T23:44:27.586Z,18.35
2023-04-09T23:46:54.512Z,18.23
2023-04-09T23:49:21.287Z,18.17
2023-04-09T23:51:50.834Z,18.14
2023-04-09T23:54:17.971Z,18.10
2023-04-09T23:56:46.202Z,18.07
2023-04-09T23:59:13.303Z,18.08
